createdAt,value
2019-06-07T00:00:33.515Z,67.85
2019-06-07T00:02:51.902Z,68.78
2019-06-07T00:05:23.576Z,68.69
2019-06-07T00:07:55.248Z,67.28
2019-06-07T00:10:35.908Z,66.63
2019-06-07T00:13:00.339Z,66.87
2019-06-07T00:15:32.125Z,66.30
2019-06-07T00:18:03.858Z,67.35
2019-06-07T00:20:35.565Z,66.93
2019-06-07T00:23:09.300Z,67.40
2019-06-07T00:25:41.368Z,69.41
2019-06-07T00:28:13.375Z,69.18
2019-06-07T00:30:52.298Z,70.34
2019-06-07T00:33:23.981Z,70.23
2019-06-07T00:35:52.567Z,70.29
2019-06-07T00:38:24.343Z,72.06
2019-06-07T00:40:56.018Z,71.98
2019-06-07T00:43:28.681Z,72.42
2019-06-07T00:46:00.442Z,73.90
2019-06-07T00:48:33.110Z,73.31
2019-06-07T00:51:04.888Z,74.13
2019-06-07T00:53:36.434Z,78.53
2019-06-07T00:56:08.119Z,77.98
2019-06-07T00:58:39.785Z,76.91
2019-06-07T01:01:13.101Z,77.35
2019-06-07T01:03:44.873Z,77.14
2019-06-07T01:06:17.603Z,77.06
2019-06-07T01:08:49.754Z,75.47
2019-06-07T01:11:23.552Z,75.11
2019-06-07T01:13:55.865Z,76.71
2019-06-07T01:16:27.347Z,78.75
2019-06-07T01:18:59.008Z,78.72
2019-06-07T01:21:30.810Z,79.39
2019-06-07T01:24:11.842Z,79.51
2019-06-07T01:26:36.588Z,77.06
2019-06-07T01:29:08.431Z,76.51
2019-06-07T01:31:40.242Z,76.67
2019-06-07T01:34:12.124Z,77.05
2019-06-07T01:36:43.901Z,77.36
2019-06-07T01:39:16.362Z,77.18
2019-06-07T01:41:47.859Z,77.31
2019-06-07T01:44:23.629Z,78.33
2019-06-07T01:46:52.745Z,79.70
2019-06-07T01:49:27.749Z,79.83
2019-06-07T01:51:57.938Z,80.93
2019-06-07T01:57:02.919Z,79.84
2019-06-07T01:59:34.693Z,80.03
2019-06-07T02:02:06.574Z,78.62
2019-06-07T02:04:38.662Z,78.05
2019-06-07T02:07:10.334Z,79.23
2019-06-07T02:09:42.108Z,78.97
2019-06-07T02:12:25.776Z,79.60
2019-06-07T02:14:47.096Z,79.14
2019-06-07T02:17:20.264Z,79.55
2019-06-07T02:19:52.078Z,80.26
2019-06-07T02:22:25.692Z,79.22
2019-06-07T02:25:34.560Z,76.43
2019-06-07T02:27:32.617Z,74.95
2019-06-07T02:30:35.478Z,73.72
2019-06-07T02:32:37.310Z,71.59
2019-06-07T02:35:09.661Z,69.79
2019-06-07T02:37:41.066Z,68.56
2019-06-07T02:40:13.405Z,64.59
2019-06-07T02:42:44.828Z,60.63
2019-06-07T02:45:16.841Z,59.33
2019-06-07T02:47:48.984Z,58.74
2019-06-07T02:50:21.186Z,56.92
2019-06-07T02:52:52.946Z,52.79
2019-06-07T02:55:27.503Z,52.79
2019-06-07T02:57:57.856Z,52.18
2019-06-07T03:01:07.771Z,49.71
2019-06-07T03:03:18.007Z,50.09
2019-06-07T03:05:49.627Z,50.50
2019-06-07T03:08:21.323Z,50.75
2019-06-07T03:10:53.080Z,51.65
2019-06-07T03:13:28.468Z,53.97
2019-06-07T03:15:59.594Z,54.21
2019-06-07T03:18:51.215Z,53.72
2019-06-07T03:21:29.329Z,52.46
2019-06-07T03:24:00.801Z,50.38
2019-06-07T03:26:35.759Z,49.19
2019-06-07T03:29:06.605Z,48.47
2019-06-07T03:31:46.386Z,48.27
2019-06-07T03:34:11.491Z,47.17
2019-06-07T03:36:43.165Z,46.29
2019-06-07T03:39:14.837Z,46.96
2019-06-07T03:42:05.077Z,46.31
2019-06-07T03:44:19.511Z,46.30
2019-06-07T03:46:51.293Z,47.04
2019-06-07T03:49:22.966Z,49.57
2019-06-07T03:51:54.641Z,51.53
2019-06-07T03:54:27.239Z,53.03
2019-06-07T03:56:59.012Z,53.82
2019-06-07T03:59:35.558Z,54.01
2019-06-07T04:02:04.099Z,55.28
2019-06-07T04:04:38.497Z,55.59
2019-06-07T04:07:09.291Z,55.63
2019-06-07T04:09:43.065Z,56.04
2019-06-07T04:12:14.277Z,55.24
2019-06-07T04:14:46.261Z,54.37
2019-06-07T04:17:17.725Z,53.86
2019-06-07T04:19:49.400Z,54.13
2019-06-07T04:22:21.176Z,54.41
2019-06-07T04:24:52.951Z,54.41
2019-06-07T04:27:25.450Z,53.31
2019-06-07T04:30:07.045Z,54.07
2019-06-07T04:32:32.063Z,54.56
2019-06-07T04:35:03.731Z,53.80
2019-06-07T04:37:39.667Z,53.52
2019-06-07T04:40:10.467Z,53.13
2019-06-07T04:42:45.224Z,52.62
2019-06-07T04:45:33.043Z,52.63
2019-06-07T04:47:50.604Z,49.87
2019-06-07T04:50:22.378Z,48.47
2019-06-07T04:52:54.159Z,46.05
2019-06-07T04:55:25.828Z,47.03
2019-06-07T04:57:57.707Z,44.52
2019-06-07T05:00:49.885Z,45.99
2019-06-07T05:03:08.624Z,43.81
2019-06-07T05:05:43.557Z,43.69
2019-06-07T05:08:27.422Z,45.25
2019-06-07T05:10:46.678Z,44.25
2019-06-07T05:13:18.288Z,43.38
2019-06-07T05:15:50.065Z,43.41
2019-06-07T05:18:21.946Z,44.41
2019-06-07T05:20:53.518Z,44.41
2019-06-07T05:25:58.091Z,42.60
2019-06-07T05:28:30.099Z,43.64
2019-06-07T05:31:07.705Z,43.22
2019-06-07T05:33:36.715Z,46.52
2019-06-07T05:36:08.062Z,45.61
2019-06-07T05:38:44.155Z,44.49
2019-06-07T05:41:12.957Z,43.37
2019-06-07T05:43:55.037Z,43.37
2019-06-07T05:46:17.727Z,42.55
2019-06-07T05:48:49.404Z,44.56
2019-06-07T05:51:20.768Z,44.56
2019-06-07T05:53:52.443Z,44.49
2019-06-07T05:56:24.117Z,44.49
2019-06-07T05:58:55.809Z,44.49
2019-06-07T06:01:42.895Z,44.66
2019-06-07T06:04:00.778Z,44.99
2019-06-07T06:06:33.801Z,44.29
2019-06-07T06:09:13.705Z,44.49
2019-06-07T06:11:49.324Z,43.55
2019-06-07T06:14:13.507Z,42.86
2019-06-07T06:16:47.940Z,44.70
2019-06-07T06:19:18.183Z,42.44
2019-06-07T06:21:49.963Z,44.18
2019-06-07T06:24:21.742Z,42.79
2019-06-07T06:27:00.268Z,43.72
2019-06-07T06:29:26.624Z,43.87
2019-06-07T06:34:31.711Z,41.32
2019-06-07T06:37:03.484Z,42.95
2019-06-07T06:39:35.265Z,42.77
2019-06-07T06:42:07.038Z,40.59
2019-06-07T06:44:41.798Z,43.30
2019-06-07T06:47:11.615Z,42.31
2019-06-07T06:49:44.234Z,41.02
2019-06-07T06:52:16.398Z,42.25
2019-06-07T06:54:55.372Z,39.02
2019-06-07T06:57:20.974Z,41.12
2019-06-07T06:59:52.986Z,39.21
2019-06-07T07:02:24.834Z,37.67
2019-06-07T07:04:56.612Z,40.34
2019-06-07T07:07:28.936Z,37.75
2019-06-07T07:10:00.977Z,38.36
2019-06-07T07:12:32.550Z,37.81
2019-06-07T07:15:06.488Z,40.13
2019-06-07T07:17:52.643Z,40.21
2019-06-07T07:20:11.462Z,40.52
2019-06-07T07:22:46.391Z,41.36
2019-06-07T07:25:16.243Z,41.67
2019-06-07T07:27:52.099Z,40.66
2019-06-07T07:30:43.148Z,44.08
2019-06-07T07:33:15.284Z,42.92
2019-06-07T07:36:10.903Z,43.43
2019-06-07T07:38:20.388Z,45.08
2019-06-07T07:41:15.215Z,45.37
2019-06-07T07:43:25.269Z,46.13
2019-06-07T07:46:02.020Z,45.81
2019-06-07T07:48:29.644Z,44.99
2019-06-07T07:51:03.257Z,43.42
2019-06-07T07:53:48.718Z,45.07
2019-06-07T07:56:07.781Z,43.89
2019-06-07T07:58:39.640Z,43.08
2019-06-07T08:01:11.533Z,40.38
2019-06-07T08:03:43.266Z,41.55
2019-06-07T08:06:15.053Z,41.18
2019-06-07T08:08:46.716Z,39.43
2019-06-07T08:11:18.391Z,37.67
2019-06-07T08:13:50.547Z,38.24
2019-06-07T08:16:22.705Z,40.43
2019-06-07T08:19:02.258Z,39.62
2019-06-07T08:21:29.350Z,40.81
2019-06-07T08:24:04.659Z,39.90
2019-06-07T08:26:35.662Z,40.86
2019-06-07T08:29:08.154Z,43.41
2019-06-07T08:31:43.350Z,43.41
2019-06-07T08:34:14.919Z,43.06
2019-06-07T08:36:46.700Z,41.97
2019-06-07T08:39:18.471Z,41.77
2019-06-07T08:42:00.137Z,41.41
2019-06-07T08:44:25.610Z,42.57
2019-06-07T08:47:16.066Z,44.79
2019-06-07T08:49:29.672Z,42.74
2019-06-07T08:52:10.510Z,44.54
2019-06-07T08:54:34.346Z,43.88
2019-06-07T08:57:19.671Z,45.28
2019-06-07T08:59:39.128Z,43.89
2019-06-07T09:02:23.443Z,43.89
2019-06-07T09:04:43.910Z,45.71
2019-06-07T09:07:20.010Z,47.14
2019-06-07T09:09:48.687Z,46.28
2019-06-07T09:12:20.272Z,46.62
2019-06-07T09:15:09.365Z,47.67
2019-06-07T09:17:25.347Z,47.90
2019-06-07T09:19:59.031Z,48.77
2019-06-07T09:22:30.127Z,47.47
2019-06-07T09:25:09.852Z,47.95
2019-06-07T09:27:35.178Z,46.72
2019-06-07T09:30:16.575Z,46.72
2019-06-07T09:32:43.474Z,46.88
2019-06-07T09:35:17.776Z,48.05
2019-06-07T09:38:21.826Z,45.59
2019-06-07T09:40:27.883Z,46.26
2019-06-07T09:43:47.985Z,45.86
2019-06-07T09:45:31.877Z,45.59
2019-06-07T09:48:10.110Z,45.80
2019-06-07T09:50:36.862Z,45.74
2019-06-07T09:53:20.938Z,46.52
2019-06-07T09:55:42.353Z,46.52
2019-06-07T09:58:50.629Z,46.46
2019-06-07T10:00:48.152Z,47.61
2019-06-07T10:03:22.425Z,47.61
2019-06-07T10:05:52.524Z,46.73
2019-06-07T10:09:42.429Z,46.85
2019-06-07T10:10:58.265Z,49.46
2019-06-07T10:13:29.944Z,47.63
2019-06-07T10:16:02.787Z,49.60
2019-06-07T10:18:34.382Z,48.59
2019-06-07T10:21:07.665Z,48.59
2019-06-07T10:23:39.157Z,48.03
2019-06-07T10:26:10.833Z,48.03
2019-06-07T10:28:42.607Z,48.99
2019-06-07T10:31:14.383Z,48.56
2019-06-07T10:33:46.058Z,47.51
2019-06-07T10:36:17.424Z,47.61
2019-06-07T10:38:49.202Z,47.62
2019-06-07T10:41:20.977Z,46.79
2019-06-07T10:43:52.752Z,46.82
2019-06-07T10:46:24.333Z,45.63
2019-06-07T10:48:56.021Z,45.78
2019-06-07T10:51:27.778Z,43.80
2019-06-07T10:53:59.552Z,42.97
2019-06-07T10:56:31.330Z,44.43
2019-06-07T10:59:03.143Z,44.68
2019-06-07T11:01:34.782Z,44.23
2019-06-07T11:04:07.762Z,44.21
2019-06-07T11:06:39.358Z,46.22
2019-06-07T11:09:12.074Z,43.09
2019-06-07T11:11:43.567Z,43.97
2019-06-07T11:14:15.407Z,43.11
2019-06-07T11:16:47.689Z,43.42
2019-06-07T11:19:19.820Z,44.17
2019-06-07T11:21:51.757Z,44.57
2019-06-07T11:24:24.787Z,45.91
2019-06-07T11:26:56.536Z,43.84
2019-06-07T11:29:28.209Z,44.21
2019-06-07T11:31:59.785Z,43.33
2019-06-07T11:34:31.579Z,41.77
2019-06-07T11:37:03.337Z,41.55
2019-06-07T11:39:35.113Z,39.87
2019-06-07T11:42:07.901Z,39.75
2019-06-07T11:44:55.681Z,39.91
2019-06-07T11:47:12.597Z,40.28
2019-06-07T11:49:44.163Z,40.20
2019-06-07T11:52:15.937Z,39.19
2019-06-07T11:54:48.221Z,39.07
2019-06-07T11:57:20.001Z,38.33
2019-06-07T11:59:51.688Z,39.29
2019-06-07T12:02:23.453Z,40.31
2019-06-07T12:04:55.232Z,40.05
2019-06-07T12:07:27.007Z,39.99
2019-06-07T12:09:58.579Z,40.64
2019-06-07T12:12:30.258Z,38.78
2019-06-07T12:15:02.051Z,39.00
2019-06-07T12:17:34.012Z,38.95
2019-06-07T12:20:10.209Z,38.13
2019-06-07T12:22:41.369Z,37.30
2019-06-07T12:25:19.000Z,38.79
2019-06-07T12:27:47.158Z,37.71
2019-06-07T12:30:26.286Z,37.18
2019-06-07T12:32:52.442Z,37.51
2019-06-07T12:35:24.225Z,38.00
2019-06-07T12:37:55.892Z,37.63
2019-06-07T12:40:32.173Z,37.50
2019-06-07T12:43:00.675Z,37.52
2019-06-07T12:45:44.533Z,34.06
2019-06-07T12:48:05.656Z,37.74
2019-06-07T12:50:43.049Z,36.70
2019-06-07T12:53:10.894Z,36.67
2019-06-07T12:55:42.933Z,36.21
2019-06-07T12:58:14.405Z,37.83
2019-06-07T13:00:46.079Z,39.17
2019-06-07T13:03:18.417Z,39.06
2019-06-07T13:05:49.740Z,37.28
2019-06-07T13:08:22.067Z,38.10
2019-06-07T13:10:53.804Z,37.65
2019-06-07T13:13:25.473Z,38.55
2019-06-07T13:15:57.387Z,39.55
2019-06-07T13:18:29.139Z,39.38
2019-06-07T13:21:00.806Z,40.43
2019-06-07T13:23:32.578Z,41.73
2019-06-07T13:26:04.152Z,39.38
2019-06-07T13:28:35.945Z,40.81
2019-06-07T13:31:07.813Z,40.15
2019-06-07T13:33:39.592Z,39.20
2019-06-07T13:36:11.470Z,40.77
2019-06-07T13:38:42.934Z,40.96
2019-06-07T13:41:29.242Z,41.53
2019-06-07T13:43:51.318Z,42.49
2019-06-07T13:46:21.004Z,41.37
2019-06-07T13:48:52.903Z,42.38
2019-06-07T13:51:25.220Z,42.10
2019-06-07T13:53:59.491Z,42.51
2019-06-07T13:56:30.791Z,42.97
2019-06-07T13:59:02.463Z,43.59
2019-06-07T14:01:34.146Z,43.61
2019-06-07T14:04:05.916Z,45.30
2019-06-07T14:06:37.811Z,44.95
2019-06-07T14:09:09.879Z,44.83
2019-06-07T14:11:50.604Z,46.69
2019-06-07T14:14:14.457Z,46.44
2019-06-07T14:16:46.132Z,47.18
2019-06-07T14:19:17.938Z,49.90
2019-06-07T14:21:49.476Z,47.20
2019-06-07T14:24:21.357Z,47.81
2019-06-07T14:27:08.474Z,58.02
2019-06-07T14:29:40.361Z,61.46
2019-06-07T14:32:11.720Z,64.87
2019-06-07T14:34:43.498Z,66.65
2019-06-07T14:37:15.282Z,67.88
2019-06-07T14:39:46.849Z,67.58
2019-06-07T14:42:18.642Z,68.87
2019-06-07T14:44:50.400Z,70.87
2019-06-07T14:47:23.686Z,70.87
2019-06-07T14:49:55.282Z,72.69
2019-06-07T14:52:26.851Z,73.14
2019-06-07T14:54:58.329Z,74.13
2019-06-07T14:57:31.125Z,74.23
2019-06-07T15:00:10.899Z,73.70
2019-06-07T15:02:37.904Z,72.46
2019-06-07T15:05:09.722Z,73.97
2019-06-07T15:07:41.399Z,74.37
2019-06-07T15:10:13.586Z,72.54
2019-06-07T15:12:45.156Z,69.94
2019-06-07T15:15:17.141Z,70.98
2019-06-07T15:17:48.810Z,69.87
2019-06-07T15:20:20.385Z,68.72
2019-06-07T15:22:52.160Z,61.89
2019-06-07T15:25:23.840Z,56.42
2019-06-07T15:27:55.511Z,59.42
2019-06-07T15:30:27.500Z,53.61
2019-06-07T15:32:59.912Z,47.16
2019-06-07T15:35:32.178Z,45.23
2019-06-07T15:38:03.952Z,46.50
2019-06-07T15:40:37.421Z,53.63
2019-06-07T15:43:08.728Z,57.10
2019-06-07T15:45:40.505Z,57.51
2019-06-07T15:48:12.088Z,54.35
2019-06-07T15:50:43.854Z,50.75
2019-06-07T15:53:15.527Z,45.57
2019-06-07T15:55:47.302Z,46.02
2019-06-07T15:58:19.096Z,45.48
2019-06-07T16:00:50.876Z,42.96
2019-06-07T16:03:22.430Z,44.81
2019-06-07T16:05:54.115Z,43.13
2019-06-07T16:08:25.780Z,45.06
2019-06-07T16:10:57.558Z,45.04
2019-06-07T16:13:29.334Z,46.18
2019-06-07T16:16:01.120Z,49.22
2019-06-07T16:18:33.167Z,52.98
2019-06-07T16:21:04.865Z,55.54
2019-06-07T16:23:37.762Z,59.93
2019-06-07T16:26:09.342Z,63.24
2019-06-07T16:28:42.455Z,64.44
2019-06-07T16:31:14.117Z,62.82
2019-06-07T16:33:45.796Z,67.18
2019-06-07T16:36:17.468Z,67.08
2019-06-07T16:38:49.247Z,68.94
2019-06-07T16:41:21.033Z,69.18
2019-06-07T16:43:52.696Z,68.72
2019-06-07T16:46:24.375Z,71.58
2019-06-07T16:48:56.059Z,67.64
2019-06-07T16:51:27.824Z,68.66
2019-06-07T16:53:59.600Z,70.09
2019-06-07T16:56:31.372Z,73.33
2019-06-07T16:59:02.952Z,69.83
2019-06-07T17:01:34.735Z,70.02
2019-06-07T17:04:06.396Z,69.86
2019-06-07T17:06:38.175Z,71.61
2019-06-07T17:09:09.949Z,75.04
2019-06-07T17:11:42.362Z,74.98
2019-06-07T17:14:13.813Z,77.65
2019-06-07T17:16:46.011Z,78.50
2019-06-07T17:19:18.592Z,78.50
2019-06-07T17:21:50.269Z,79.77
2019-06-07T17:24:22.047Z,80.29
2019-06-07T17:26:53.821Z,79.83
2019-06-07T17:29:25.595Z,80.29
2019-06-07T17:31:57.269Z,83.80
2019-06-07T17:34:28.846Z,83.80
2019-06-07T17:37:00.525Z,84.05
2019-06-07T17:39:32.296Z,85.80
2019-06-07T17:42:04.075Z,86.47
2019-06-07T17:44:38.199Z,88.12
2019-06-07T17:47:09.875Z,87.84
2019-06-07T17:49:41.795Z,87.60
2019-06-07T17:52:13.632Z,87.02
2019-06-07T17:54:45.907Z,89.18
2019-06-07T17:57:17.389Z,89.73
2019-06-07T17:59:48.961Z,90.93
2019-06-07T18:02:20.844Z,89.67
2019-06-07T18:04:53.519Z,89.14
2019-06-07T18:07:26.797Z,88.68
2019-06-07T18:09:59.538Z,88.13
2019-06-07T18:12:34.712Z,85.95
2019-06-07T18:15:11.503Z,84.99
2019-06-07T18:17:42.856Z,84.32
2019-06-07T18:20:14.733Z,83.17
2019-06-07T18:22:47.027Z,82.28
2019-06-07T18:25:19.366Z,82.80
2019-06-07T18:27:51.096Z,80.63
2019-06-07T18:30:22.965Z,80.51
2019-06-07T18:32:55.120Z,78.43
2019-06-07T18:35:26.825Z,77.11
2019-06-07T18:37:59.660Z,74.32
2019-06-07T18:40:31.406Z,73.03
2019-06-07T18:43:03.290Z,73.63
2019-06-07T18:45:35.156Z,74.36
2019-06-07T18:48:07.244Z,78.07
2019-06-07T18:50:39.025Z,78.43
2019-06-07T18:53:11.243Z,78.51
2019-06-07T18:55:42.683Z,78.58
2019-06-07T18:58:14.450Z,80.47
2019-06-07T19:00:47.310Z,80.65
2019-06-07T19:03:20.714Z,78.57
2019-06-07T19:05:52.227Z,77.62
2019-06-07T19:08:23.599Z,80.33
2019-06-07T19:10:55.375Z,80.41
2019-06-07T19:13:27.052Z,83.62
2019-06-07T19:15:59.693Z,81.86
2019-06-07T19:18:31.425Z,81.23
2019-06-07T19:21:03.199Z,78.60
2019-06-07T19:23:34.878Z,77.49
2019-06-07T19:26:06.652Z,75.87
2019-06-07T19:28:39.554Z,77.18
2019-06-07T19:31:11.330Z,79.83
2019-06-07T19:33:49.228Z,83.71
2019-06-07T19:36:16.522Z,85.10
2019-06-07T19:38:49.221Z,81.94
2019-06-07T19:41:20.687Z,83.18
2019-06-07T19:43:52.361Z,84.52
2019-06-07T19:46:24.037Z,84.50
2019-06-07T19:48:56.553Z,85.03
2019-06-07T19:51:28.202Z,82.78
2019-06-07T19:54:01.642Z,80.75
2019-06-07T19:56:33.218Z,78.39
2019-06-07T19:59:05.425Z,78.81
2019-06-07T20:01:36.741Z,79.16
2019-06-07T20:10:35.221Z,80.47
2019-06-07T20:13:06.643Z,79.48
2019-06-07T20:15:38.422Z,81.49
2019-06-07T20:18:10.200Z,82.88
2019-06-07T20:20:41.768Z,83.99
2019-06-07T20:23:13.451Z,83.22
2019-06-07T20:25:45.541Z,78.85
2019-06-07T20:28:17.454Z,77.52
2019-06-07T20:30:52.189Z,77.80
2019-06-07T20:33:22.601Z,75.14
2019-06-07T20:35:54.267Z,73.26
2019-06-07T20:38:26.047Z,73.33
2019-06-07T20:40:58.948Z,72.34
2019-06-07T20:43:30.517Z,71.42
2019-06-07T20:46:03.515Z,74.08
2019-06-07T20:48:35.606Z,76.04
2019-06-07T20:51:08.675Z,71.37
2019-06-07T20:53:40.395Z,71.24
2019-06-07T20:56:12.063Z,70.83
2019-06-07T20:58:43.939Z,70.95
2019-06-07T21:01:15.719Z,72.38
2019-06-07T21:03:47.497Z,73.17
2019-06-07T21:06:19.270Z,72.71
2019-06-07T21:08:51.051Z,70.25
2019-06-07T21:11:22.623Z,70.57
2019-06-07T21:13:54.291Z,69.69
2019-06-07T21:16:25.966Z,70.77
2019-06-07T21:18:57.749Z,71.65
2019-06-07T21:21:29.523Z,69.60
2019-06-07T21:24:02.472Z,68.77
2019-06-07T21:26:34.101Z,68.71
2019-06-07T21:29:06.982Z,69.79
2019-06-07T21:31:38.877Z,70.26
2019-06-07T21:34:13.720Z,69.18
2019-06-07T21:36:43.663Z,68.79
2019-06-07T21:39:15.438Z,68.85
2019-06-07T21:41:48.137Z,70.51
2019-06-07T21:44:19.500Z,70.84
2019-06-07T21:46:51.176Z,73.61
2019-06-07T21:49:22.949Z,71.57
2019-06-07T21:51:54.732Z,71.09
2019-06-07T21:54:26.511Z,71.89
2019-06-07T21:56:58.089Z,70.58
2019-06-07T21:59:29.751Z,70.13
2019-06-07T22:02:03.125Z,69.76
2019-06-07T22:04:34.734Z,69.55
2019-06-07T22:07:07.901Z,69.95
2019-06-07T22:09:39.516Z,69.27
2019-06-07T22:12:12.099Z,69.03
2019-06-07T22:14:43.688Z,69.02
2019-06-07T22:17:15.359Z,69.26
2019-06-07T22:19:46.827Z,68.78
2019-06-07T22:22:18.503Z,68.82
2019-06-07T22:24:50.280Z,68.11
2019-06-07T22:27:22.058Z,66.37
2019-06-07T22:29:53.727Z,67.05
2019-06-07T22:32:25.410Z,68.09
2019-06-07T22:34:57.179Z,67.58
2019-06-07T22:37:28.857Z,66.31
2019-06-07T22:40:00.640Z,65.81
2019-06-07T22:42:32.526Z,66.69
2019-06-07T22:45:05.407Z,66.16
2019-06-07T22:47:36.888Z,67.45
2019-06-07T22:50:10.678Z,67.23
2019-06-07T22:52:42.275Z,67.35
2019-06-07T22:55:15.882Z,68.03
2019-06-07T22:57:59.851Z,68.31
2019-06-07T23:00:36.218Z,69.05
2019-06-07T23:03:08.513Z,71.29
2019-06-07T23:05:40.385Z,71.20
2019-06-07T23:08:13.085Z,71.66
2019-06-07T23:10:44.756Z,73.02
2019-06-07T23:13:17.841Z,73.60
2019-06-07T23:15:49.340Z,74.51
2019-06-07T23:18:21.112Z,74.88
2019-06-07T23:20:52.891Z,75.73
2019-06-07T23:23:24.667Z,75.20
2019-06-07T23:25:56.235Z,76.28
2019-06-07T23:28:27.911Z,75.04
2019-06-07T23:30:59.591Z,76.36
2019-06-07T23:33:31.382Z,74.81
2019-06-07T23:36:03.262Z,74.22
2019-06-07T23:38:35.025Z,76.13
2019-06-07T23:41:06.696Z,76.14
2019-06-07T23:43:38.475Z,77.38
2019-06-07T23:46:11.422Z,77.12
2019-06-07T23:48:43.351Z,78.41
2019-06-07T23:51:15.605Z,78.80
2019-06-07T23:53:47.312Z,78.50
2019-06-07T23:56:20.417Z,77.43
2019-06-07T23:58:52.199Z,77.94
